Time;durP1;ratioP1;P1;durP2;ratioP2;P2;SDS_P1;SDS_P2;PMS_P1;PMS_P2;Temp;Humidity;BMP_temperature;BMP_pressure;BME280_temperature;BME280_humidity;BME280_pressure;Samples;Min_cycle;Max_cycle;Signal;HPM_P1;HPM_P2
2022/08/23 00:01:22;;;;;;;11.18;9.18;;;;;;;19.36;69.58;94281.25;5112934;28;20051;-80
2022/08/23 00:03:50;;;;;;;14.55;9.73;;;;;;;19.30;69.74;94281.19;5078945;28;20043;-79
2022/08/23 00:06:16;;;;;;;11.25;9.23;;;;;;;19.40;70.17;94302.72;5113669;27;20060;-79
2022/08/23 00:08:42;;;;;;;10.45;8.65;;;;;;;19.34;69.95;94288.50;5112327;28;20023;-80
2022/08/23 00:11:34;;;;;;;11.38;9.02;;;;;;;19.42;69.80;94295.44;5095571;28;20035;-80
2022/08/23 00:14:09;;;;;;;11.68;9.00;;;;;;;19.48;70.10;94292.03;5112630;28;20027;-80
2022/08/23 00:16:35;;;;;;;10.63;9.20;;;;;;;19.56;70.42;94301.59;5096135;28;20031;-80
2022/08/23 00:19:02;;;;;;;13.27;9.02;;;;;;;19.56;70.27;94304.25;5095543;28;20084;-80
2022/08/23 00:21:28;;;;;;;11.32;8.98;;;;;;;19.56;70.05;94307.69;5095120;28;20058;-80
2022/08/23 00:23:54;;;;;;;11.98;9.13;;;;;;;19.55;69.65;94302.59;5112109;28;20038;-79
2022/08/23 00:26:19;;;;;;;10.02;7.95;;;;;;;19.54;69.46;94291.25;5095465;28;20067;-79
2022/08/23 00:28:46;;;;;;;8.90;8.00;;;;;;;19.53;69.02;94291.44;5094940;28;20126;-80
2022/08/23 00:31:11;;;;;;;9.65;8.25;;;;;;;19.46;68.75;94272.16;5111957;28;20478;-79
2022/08/23 00:33:37;;;;;;;11.05;8.43;;;;;;;19.58;68.69;94294.31;5113588;28;20020;-80
2022/08/23 00:36:02;;;;;;;15.15;9.20;;;;;;;19.52;69.00;94288.00;5113204;28;20533;-79
2022/08/23 00:38:28;;;;;;;9.40;8.50;;;;;;;19.55;69.84;94286.78;5111757;28;20408;-80
2022/08/23 00:40:53;;;;;;;15.18;9.07;;;;;;;19.48;70.11;94288.59;5112862;28;20040;-80
2022/08/23 00:49:14;;;;;;;11.98;9.38;;;;;;;19.31;71.24;94272.28;5092431;28;20142;-80
2022/08/23 00:52:08;;;;;;;10.85;8.95;;;;;;;19.35;71.68;94276.16;5074315;28;20486;-80
2022/08/23 00:54:35;;;;;;;10.30;8.90;;;;;;;19.41;71.10;94291.16;5092068;28;20044;-80
2022/08/23 00:57:02;;;;;;;10.52;9.02;;;;;;;19.32;70.69;94285.25;5057747;28;20032;-80
2022/08/23 00:59:27;;;;;;;10.02;8.77;;;;;;;19.41;70.69;94296.44;5092394;28;20486;-79
2022/08/23 01:01:53;;;;;;;11.63;9.10;;;;;;;19.36;70.89;94293.56;5094654;28;20085;-80
2022/08/23 01:04:18;;;;;;;11.88;8.90;;;;;;;19.33;70.76;94291.31;5094178;28;20063;-80
2022/08/23 01:06:52;;;;;;;10.40;8.52;;;;;;;19.14;70.86;94287.59;5112758;28;20447;-79
2022/08/23 01:09:18;;;;;;;10.70;8.82;;;;;;;19.16;70.99;94310.03;5077844;28;20027;-80
2022/08/23 01:11:49;;;;;;;11.43;9.27;;;;;;;19.25;70.92;94312.53;5060327;28;20393;-80
2022/08/23 01:14:24;;;;;;;12.52;8.18;;;;;;;19.19;71.25;94308.84;5094175;28;20035;-80
2022/08/23 01:16:57;;;;;;;12.25;9.18;;;;;;;19.03;72.10;94307.34;5093984;28;20038;-80
2022/08/23 01:19:52;;;;;;;11.77;10.30;;;;;;;19.04;73.06;94324.75;5112006;28;20119;-80
2022/08/23 01:22:26;;;;;;;16.35;11.93;;;;;;;18.95;73.86;94323.28;5092607;28;20039;-80
2022/08/23 01:24:51;;;;;;;15.00;11.88;;;;;;;18.96;74.09;94317.00;5093907;28;20493;-80
2022/08/23 01:27:17;;;;;;;12.30;11.00;;;;;;;18.92;74.04;94299.97;5076962;28;20156;-80
2022/08/23 01:29:42;;;;;;;13.65;10.70;;;;;;;18.97;73.79;94305.44;5060150;28;20080;-79
2022/08/23 01:32:08;;;;;;;13.43;9.95;;;;;;;19.05;73.74;94307.94;5093272;28;20032;-80
2022/08/23 01:34:34;;;;;;;11.63;9.20;;;;;;;18.99;72.67;94292.91;5093904;28;20032;-79
2022/08/23 01:37:00;;;;;;;9.93;8.93;;;;;;;19.01;72.02;94285.66;5093820;28;20461;-80
2022/08/23 01:39:26;;;;;;;10.90;8.65;;;;;;;19.09;71.58;94292.59;5111898;28;20035;-80
2022/08/23 01:41:51;;;;;;;9.93;8.93;;;;;;;19.13;70.95;94293.84;5076641;28;20067;-80
2022/08/23 01:44:17;;;;;;;12.85;9.45;;;;;;;19.13;70.84;94307.81;5097107;27;20055;-80
2022/08/23 01:46:43;;;;;;;12.75;8.93;;;;;;;19.09;70.79;94309.19;5096981;27;20050;-80
2022/08/23 01:49:09;;;;;;;9.57;8.38;;;;;;;19.11;70.63;94309.84;5114041;27;20041;-80
2022/08/23 01:51:34;;;;;;;13.15;8.70;;;;;;;19.10;70.80;94310.00;5096969;27;20027;-80
2022/08/23 01:54:00;;;;;;;11.20;9.10;;;;;;;19.03;70.80;94306.50;5132391;27;20027;-80
2022/08/23 01:56:25;;;;;;;15.65;8.40;;;;;;;19.07;70.72;94305.13;5097071;28;20060;-80
2022/08/23 01:58:51;;;;;;;12.50;8.55;;;;;;;19.00;70.96;94301.63;5114117;27;20027;-80
2022/08/23 02:01:17;;;;;;;12.00;8.32;;;;;;;18.99;70.67;94300.81;5113770;28;20416;-80
2022/08/23 02:03:44;;;;;;;9.43;8.27;;;;;;;19.02;70.08;94303.06;5114154;28;20396;-80
2022/08/23 02:06:10;;;;;;;11.57;9.25;;;;;;;18.97;70.40;94292.28;5080492;28;20024;-80
2022/08/23 02:11:21;;;;;;;11.98;8.13;;;;;;;19.02;70.29;94310.16;5131825;28;20058;-80
2022/08/23 02:13:49;;;;;;;17.52;8.73;;;;;;;18.98;70.42;94305.28;5114002;28;20027;-79
2022/08/23 02:16:29;;;;;;;9.38;8.38;;;;;;;19.06;70.22;94309.59;5097390;28;20035;-80
2022/08/23 02:18:55;;;;;;;13.52;8.15;;;;;;;19.14;70.09;94314.72;5080578;28;20046;-80
2022/08/23 02:21:21;;;;;;;11.55;8.70;;;;;;;19.08;69.90;94309.38;5097217;28;20453;-79
2022/08/23 02:23:46;;;;;;;13.48;8.48;;;;;;;19.13;70.19;94312.25;5079655;28;20390;-80
2022/08/23 02:26:12;;;;;;;11.52;8.75;;;;;;;19.17;70.12;94310.88;5113593;28;20504;-80
2022/08/23 02:28:37;;;;;;;11.15;8.73;;;;;;;19.17;69.94;94313.53;5113758;28;20401;-80
2022/08/23 02:31:03;;;;;;;11.93;8.63;;;;;;;19.08;70.35;94318.09;5113442;28;20533;-80
2022/08/23 02:33:28;;;;;;;10.90;8.90;;;;;;;19.04;70.79;94316.84;5079746;28;20038;-80
2022/08/23 02:35:54;;;;;;;9.93;8.60;;;;;;;19.03;70.88;94317.03;5079716;28;20031;-80
2022/08/23 02:38:19;;;;;;;11.02;8.05;;;;;;;18.99;70.89;94316.59;5132311;28;20035;-80
2022/08/23 02:40:45;;;;;;;10.50;7.93;;;;;;;18.97;70.44;94322.06;5132050;28;20531;-80
2022/08/23 02:43:10;;;;;;;9.68;8.63;;;;;;;18.99;71.21;94324.50;5093069;28;20496;-80
2022/08/23 02:45:39;;;;;;;11.13;8.55;;;;;;;18.87;71.34;94299.72;5097025;28;20151;-80
2022/08/23 02:48:04;;;;;;;9.13;8.02;;;;;;;18.96;71.43;94320.44;5097192;28;20047;-80
2022/08/23 02:50:30;;;;;;;9.18;7.63;;;;;;;19.03;70.43;94323.13;5080059;28;20536;-79
2022/08/23 02:53:00;;;;;;;10.30;8.20;;;;;;;19.04;71.11;94308.97;5096890;28;20548;-80
2022/08/23 02:55:26;;;;;;;10.60;8.68;;;;;;;18.84;70.73;94290.38;5081008;28;20028;-80
2022/08/23 02:57:51;;;;;;;9.20;7.65;;;;;;;18.93;70.66;94301.59;5079945;28;20032;-80
2022/08/23 03:00:17;;;;;;;9.85;8.15;;;;;;;18.92;70.66;94308.66;5096649;28;20047;-80
2022/08/23 03:02:43;;;;;;;10.68;7.32;;;;;;;18.74;70.53;94285.44;5079945;28;20494;-80
2022/08/23 03:05:09;;;;;;;9.40;6.70;;;;;;;18.84;70.11;94290.38;5079837;28;20083;-79
2022/08/23 03:07:34;;;;;;;7.75;6.43;;;;;;;18.83;69.52;94282.66;5080111;28;20110;-80
2022/08/23 03:10:00;;;;;;;9.98;6.50;;;;;;;18.90;69.53;94291.44;5096724;28;20412;-80
2022/08/23 03:12:27;;;;;;;9.20;6.75;;;;;;;18.94;69.58;94292.69;5114745;28;20031;-80
2022/08/23 03:14:53;;;;;;;7.85;6.15;;;;;;;18.97;69.09;94287.88;5080183;28;20301;-80
2022/08/23 03:17:18;;;;;;;9.45;6.15;;;;;;;18.97;68.97;94285.22;5096451;28;20039;-80
2022/08/23 03:19:44;;;;;;;7.80;6.40;;;;;;;18.87;68.84;94257.63;5096543;28;20035;-80
2022/08/23 03:22:09;;;;;;;6.93;6.00;;;;;;;18.92;68.87;94265.75;5096411;28;20401;-80
2022/08/23 03:24:35;;;;;;;8.57;6.43;;;;;;;19.04;69.11;94287.91;5096321;28;20489;-80
2022/08/23 03:27:01;;;;;;;7.13;6.43;;;;;;;19.07;69.07;94290.16;5114697;28;20409;-80
2022/08/23 03:29:27;;;;;;;7.85;6.68;;;;;;;19.05;69.13;94286.06;5096300;28;20035;-80
2022/08/23 03:31:53;;;;;;;7.82;6.18;;;;;;;19.04;69.09;94287.91;5079134;28;20047;-80
2022/08/23 03:34:18;;;;;;;6.78;6.05;;;;;;;19.08;68.71;94285.69;5096216;28;20097;-80
2022/08/23 03:36:46;;;;;;;8.43;6.07;;;;;;;19.11;69.64;94291.41;5062642;28;20273;-80
2022/08/23 03:39:12;;;;;;;8.45;6.47;;;;;;;19.06;69.81;94293.78;5079316;28;20027;-80
2022/08/23 03:41:37;;;;;;;6.57;5.93;;;;;;;19.07;69.79;94297.25;5062323;28;20537;-80
2022/08/23 03:44:03;;;;;;;8.88;5.88;;;;;;;19.13;69.18;94305.16;5094368;27;20027;-80
2022/08/23 03:46:29;;;;;;;8.30;5.90;;;;;;;19.05;69.55;94307.13;5099160;27;20452;-80
2022/08/23 03:48:56;;;;;;;7.25;5.40;;;;;;;19.01;68.73;94308.53;5082484;27;20068;-80
2022/08/23 03:51:22;;;;;;;7.45;5.20;;;;;;;18.96;69.35;94307.28;5116462;27;20024;-80
2022/08/23 03:53:48;;;;;;;6.18;5.57;;;;;;;18.98;69.75;94315.81;5099238;27;20079;-80
2022/08/23 03:56:35;;;;;;;7.95;5.85;;;;;;;18.95;70.04;94323.28;5098579;27;20220;-79
2022/08/23 03:59:03;;;;;;;6.35;5.53;;;;;;;18.95;70.40;94331.16;5134113;27;20488;-80
2022/08/23 04:01:29;;;;;;;9.93;5.97;;;;;;;18.96;70.75;94333.59;5082149;27;20051;-80
2022/08/23 04:03:58;;;;;;;8.18;6.22;;;;;;;18.93;71.80;94335.78;5115801;27;20092;-80
2022/08/23 04:06:24;;;;;;;9.10;6.22;;;;;;;18.94;70.89;94335.63;5099995;27;20060;-80
2022/08/23 04:08:49;;;;;;;6.13;5.38;;;;;;;18.95;70.78;94333.78;5097820;27;20035;-80
2022/08/23 04:11:17;;;;;;;7.00;5.65;;;;;;;18.83;71.56;94322.94;5117169;27;20035;-80
2022/08/23 04:13:42;;;;;;;6.68;5.95;;;;;;;18.79;71.60;94324.34;5099001;27;20031;-80
2022/08/23 04:16:08;;;;;;;6.90;5.90;;;;;;;18.75;71.64;94320.47;5078246;28;20081;-80
2022/08/23 04:18:33;;;;;;;10.25;6.03;;;;;;;18.78;71.89;94329.78;5078432;28;20031;-79
2022/08/23 04:21:00;;;;;;;6.80;5.70;;;;;;;18.68;73.10;94323.00;5095219;28;20028;-80
2022/08/23 04:23:26;;;;;;;8.63;6.32;;;;;;;18.64;73.43;94324.38;5095334;28;20039;-80
2022/08/23 04:25:55;;;;;;;11.48;6.15;;;;;;;18.67;73.61;94318.75;5078080;28;20077;-80
2022/08/23 04:28:23;;;;;;;8.57;5.93;;;;;;;18.58;73.48;94319.84;5078538;28;20026;-80
2022/08/23 04:30:49;;;;;;;6.82;5.95;;;;;;;18.49;73.64;94318.34;5078530;28;20516;-80
2022/08/23 04:33:16;;;;;;;7.63;5.55;;;;;;;18.45;73.00;94322.38;5105439;27;20095;-81
2022/08/23 04:35:41;;;;;;;7.60;5.53;;;;;;;18.47;73.74;94331.72;5115054;27;20039;-80
2022/08/23 04:38:07;;;;;;;7.18;5.68;;;;;;;18.48;73.87;94330.69;5098640;27;20054;-80
2022/08/23 04:43:16;;;;;;;6.72;5.78;;;;;;;18.53;73.01;94330.97;5103777;27;20034;-79
2022/08/23 04:45:42;;;;;;;6.55;5.53;;;;;;;18.68;73.01;94340.59;5098061;27;20031;-80
2022/08/23 04:48:08;;;;;;;7.90;6.72;;;;;;;18.69;72.91;94340.44;5080756;27;20027;-80
2022/08/23 04:50:34;;;;;;;10.25;6.32;;;;;;;18.67;73.03;94339.78;5115115;27;20087;-80
2022/08/23 04:53:00;;;;;;;7.53;6.25;;;;;;;18.75;73.15;94349.41;5097861;27;20079;-80
2022/08/23 04:55:25;;;;;;;7.95;6.05;;;;;;;18.80;73.60;94354.09;5122612;27;20043;-80
2022/08/23 04:57:53;;;;;;;6.68;5.97;;;;;;;18.89;72.91;94366.94;5105455;27;20038;-80
2022/08/23 05:00:18;;;;;;;8.52;5.90;;;;;;;18.83;72.99;94365.03;5129636;27;20152;-80
2022/08/23 05:02:45;;;;;;;6.97;5.90;;;;;;;18.96;72.69;94378.31;5125840;27;20039;-80
2022/08/23 05:05:11;;;;;;;6.90;5.47;;;;;;;19.04;72.37;94381.84;5110667;27;20184;-81
2022/08/23 05:07:36;;;;;;;7.47;5.45;;;;;;;19.08;72.11;94385.72;5093115;27;20466;-80
2022/08/23 05:10:04;;;;;;;6.30;5.68;;;;;;;19.11;72.05;94377.44;5091562;27;20039;-80
2022/08/23 05:12:30;;;;;;;6.93;5.15;;;;;;;19.14;71.62;94374.44;5132102;27;20106;-80
2022/08/23 05:14:55;;;;;;;7.30;5.10;;;;;;;19.19;71.14;94383.41;5113336;27;20031;-80
2022/08/23 05:17:21;;;;;;;5.82;5.15;;;;;;;19.27;70.74;94389.53;5096189;27;20035;-80
2022/08/23 05:19:46;;;;;;;6.47;5.25;;;;;;;19.36;70.72;94398.91;5094820;27;20031;-80
2022/08/23 05:22:12;;;;;;;7.57;5.70;;;;;;;19.40;70.22;94389.63;5077452;28;20039;-80
2022/08/23 05:24:37;;;;;;;7.53;5.45;;;;;;;19.50;70.15;94391.91;5094742;27;20123;-80
2022/08/23 05:27:03;;;;;;;6.75;5.28;;;;;;;19.57;70.18;94390.16;5114294;27;20408;-80
2022/08/23 05:29:28;;;;;;;7.05;5.10;;;;;;;19.56;70.60;94380.63;5113738;27;20035;-80
2022/08/23 05:31:55;;;;;;;6.50;5.47;;;;;;;19.59;69.81;94374.97;5096650;27;20047;-80
2022/08/23 05:34:21;;;;;;;5.80;5.18;;;;;;;19.86;68.97;94382.06;5097915;27;20023;-80
2022/08/23 05:36:47;;;;;;;8.18;5.30;;;;;;;20.00;68.42;94376.84;5067829;27;20034;-79
2022/08/23 05:39:14;;;;;;;6.43;4.88;;;;;;;20.05;67.79;94361.25;5084587;27;20034;-78
2022/08/23 05:41:40;;;;;;;6.65;5.10;;;;;;;20.26;66.37;94384.88;5087481;28;20038;-79
2022/08/23 05:44:06;;;;;;;7.28;5.00;;;;;;;20.35;66.41;94380.25;5093622;28;20510;-78
2022/08/23 05:46:32;;;;;;;6.45;5.38;;;;;;;20.47;66.01;94391.03;5100095;27;20031;-78
2022/08/23 05:48:58;;;;;;;7.47;5.95;;;;;;;20.55;65.69;94392.72;5109054;27;20613;-78
2022/08/23 05:51:26;;;;;;;8.38;5.25;;;;;;;20.56;64.55;94389.91;5094885;28;20032;-78
2022/08/23 05:53:53;;;;;;;6.22;5.50;;;;;;;20.69;65.42;94387.25;5090138;27;20080;-79
2022/08/23 05:56:20;;;;;;;6.60;5.53;;;;;;;20.89;65.31;94397.88;5087112;28;20028;-79
2022/08/23 05:58:46;;;;;;;6.25;5.65;;;;;;;21.03;64.35;94395.25;5111352;28;20412;-80
2022/08/23 06:01:12;;;;;;;8.13;5.88;;;;;;;21.13;63.17;94393.03;5073354;28;20044;-80
2022/08/23 06:03:38;;;;;;;9.88;6.03;;;;;;;21.24;63.16;94391.63;5104309;28;20425;-80
2022/08/23 06:06:05;;;;;;;7.43;5.78;;;;;;;21.18;62.68;94382.69;5108466;28;20481;-80
2022/08/23 06:08:31;;;;;;;9.18;6.03;;;;;;;21.35;61.68;94391.00;5102006;28;20085;-79
2022/08/23 06:11:06;;;;;;;8.00;5.82;;;;;;;21.42;61.95;94387.38;5101184;28;20059;-78
2022/08/23 06:13:32;;;;;;;8.90;6.22;;;;;;;21.64;62.16;94400.38;5110148;28;20027;-78
2022/08/23 06:15:57;;;;;;;7.30;5.70;;;;;;;21.79;61.06;94392.22;5105077;28;20115;-80
2022/08/23 06:18:24;;;;;;;9.82;6.15;;;;;;;21.99;60.28;94408.03;5090129;28;20261;-79
2022/08/23 06:21:05;;;;;;;10.38;5.95;;;;;;;22.13;59.18;94409.63;5114598;28;20185;-81
2022/08/23 06:23:31;;;;;;;7.10;6.15;;;;;;;22.28;58.83;94410.22;5115677;27;20024;-81
2022/08/23 06:25:57;;;;;;;9.75;5.90;;;;;;;22.44;58.65;94406.28;5110677;28;20046;-83
2022/08/23 06:28:22;;;;;;;7.65;6.05;;;;;;;22.61;58.19;94411.91;5106092;28;20028;-83
2022/08/23 06:30:48;;;;;;;10.13;5.47;;;;;;;22.80;57.02;94419.97;5103476;28;20547;-80
2022/08/23 06:33:13;;;;;;;6.80;5.57;;;;;;;22.94;57.01;94424.19;5112017;28;20028;-80
2022/08/23 06:35:40;;;;;;;8.27;5.65;;;;;;;23.09;56.34;94422.06;5111323;28;20040;-80
2022/08/23 06:38:06;;;;;;;7.40;5.25;;;;;;;23.19;55.46;94422.41;5114934;28;20548;-80
2022/08/23 06:40:34;;;;;;;7.03;5.00;;;;;;;23.35;54.96;94426.38;5095730;28;20042;-80
2022/08/23 06:42:59;;;;;;;6.72;5.20;;;;;;;23.49;55.00;94432.41;5114135;28;20454;-79
2022/08/23 06:45:25;;;;;;;8.25;5.10;;;;;;;23.49;54.06;94413.84;5105394;28;20036;-80
2022/08/23 06:47:50;;;;;;;9.70;5.70;;;;;;;23.71;53.78;94427.56;5108277;28;20482;-81
2022/08/23 06:50:18;;;;;;;8.98;5.05;;;;;;;23.66;53.86;94423.91;5112608;28;20035;-80
2022/08/23 06:52:51;;;;;;;6.63;5.05;;;;;;;23.84;53.90;94429.25;5093801;28;20039;-80
2022/08/23 06:55:17;;;;;;;7.15;4.97;;;;;;;23.94;52.97;94437.53;5107656;28;20039;-82
2022/08/23 06:57:42;;;;;;;11.65;5.28;;;;;;;23.81;53.13;94403.19;5104178;28;20047;-80
2022/08/23 07:00:10;;;;;;;6.47;5.28;;;;;;;24.17;53.35;94442.19;5097566;28;20060;-81
2022/08/23 07:02:36;;;;;;;9.55;4.75;;;;;;;24.30;52.83;94435.94;5094515;28;20040;-80
2022/08/23 07:05:01;;;;;;;7.35;4.97;;;;;;;24.42;52.13;94442.13;5085405;28;20115;-80
2022/08/23 07:07:29;;;;;;;7.70;4.60;;;;;;;24.52;51.21;94439.81;5093024;28;20418;-81
2022/08/23 07:09:55;;;;;;;7.07;5.05;;;;;;;24.60;51.31;94432.56;5100902;28;20061;-81
2022/08/23 07:12:20;;;;;;;9.90;5.63;;;;;;;24.63;50.48;94432.16;5089148;28;20039;-81
2022/08/23 07:14:46;;;;;;;8.82;5.30;;;;;;;24.68;49.98;94434.91;5079137;28;20036;-81
2022/08/23 07:17:12;;;;;;;9.18;5.88;;;;;;;24.57;49.80;94422.38;5091495;28;20024;-81
2022/08/23 07:19:37;;;;;;;6.65;5.22;;;;;;;24.59;50.01;94431.75;5075778;28;20044;-81
2022/08/23 07:22:04;;;;;;;6.18;5.18;;;;;;;24.49;50.77;94429.63;5092649;28;20044;-80
2022/08/23 07:24:30;;;;;;;8.73;7.40;;;;;;;24.49;51.97;94427.00;5087797;28;20024;-81
2022/08/23 07:26:56;;;;;;;10.07;8.23;;;;;;;24.59;52.30;94430.94;5075744;28;20084;-81
2022/08/23 07:29:22;;;;;;;9.73;8.02;;;;;;;24.62;51.79;94431.31;5055716;28;20115;-81
2022/08/23 07:31:53;;;;;;;12.38;7.50;;;;;;;24.59;52.63;94425.63;5073369;28;20520;-81
2022/08/23 07:34:19;;;;;;;8.73;7.63;;;;;;;24.48;52.23;94416.56;5074085;28;20486;-81
2022/08/23 07:36:47;;;;;;;10.20;8.25;;;;;;;24.50;52.35;94433.91;5090395;28;20119;-81
2022/08/23 07:39:13;;;;;;;8.40;7.45;;;;;;;24.41;51.85;94429.91;5090272;28;20028;-81
2022/08/23 07:41:39;;;;;;;8.65;7.68;;;;;;;24.35;52.05;94422.84;5090096;28;20136;-81
2022/08/23 07:44:05;;;;;;;10.55;7.40;;;;;;;24.44;51.80;94440.09;5074029;28;20619;-81
2022/08/23 07:46:31;;;;;;;9.07;7.30;;;;;;;24.28;51.44;94430.03;5075459;28;20051;-81
2022/08/23 07:48:58;;;;;;;13.25;7.93;;;;;;;24.28;52.38;94448.63;5058558;28;20081;-81
2022/08/23 07:51:23;;;;;;;8.27;7.40;;;;;;;24.25;52.65;94446.41;5075082;28;20040;-81
2022/08/23 07:53:49;;;;;;;10.10;7.72;;;;;;;24.05;52.21;94430.72;5092222;28;20495;-81
2022/08/23 07:56:15;;;;;;;11.73;8.25;;;;;;;24.05;53.11;94452.72;5092317;28;20405;-80
2022/08/23 07:58:41;;;;;;;9.35;8.35;;;;;;;23.92;52.72;94447.53;5075243;28;20478;-81
2022/08/23 08:01:21;;;;;;;9.85;8.43;;;;;;;24.01;53.26;94453.38;5074822;28;20056;-81
2022/08/23 08:03:51;;;;;;;;;;;;;;;24.03;53.43;94464.59;5092260;28;20136;-81
2022/08/23 08:06:27;;;;;;;10.05;8.32;;;;;;;23.93;54.03;94458.97;5093335;28;19919;-81
2022/08/23 08:08:53;;;;;;;10.43;8.35;;;;;;;23.90;53.92;94460.22;5092894;28;20058;-80
2022/08/23 08:11:21;;;;;;;10.25;8.07;;;;;;;23.84;53.77;94458.44;5091600;28;20071;-81
2022/08/23 08:13:47;;;;;;;11.68;8.52;;;;;;;23.87;53.45;94463.28;5075010;28;20486;-81
2022/08/23 08:16:33;;;;;;;10.55;8.57;;;;;;;23.90;54.09;94460.22;5074704;28;20109;-81
2022/08/23 08:18:59;;;;;;;14.18;8.30;;;;;;;23.81;53.80;94448.25;5091427;28;20505;-83
2022/08/23 08:21:26;;;;;;;10.35;8.07;;;;;;;23.81;53.64;94458.88;5074891;28;20050;-83
2022/08/23 08:23:52;;;;;;;9.70;8.32;;;;;;;23.86;54.32;94474.94;5091241;28;20039;-82
2022/08/23 08:26:17;;;;;;;10.07;7.97;;;;;;;23.48;54.12;94417.50;5091248;28;20032;-83
2022/08/23 08:28:43;;;;;;;8.38;7.05;;;;;;;23.57;53.76;94418.88;5091282;28;20401;-83
2022/08/23 08:31:11;;;;;;;9.55;6.80;;;;;;;23.90;52.62;94460.22;5091162;28;20039;-82
2022/08/23 08:33:37;;;;;;;9.52;7.45;;;;;;;23.75;51.65;94426.06;5091276;28;20027;-82
2022/08/23 08:36:03;;;;;;;9.50;7.05;;;;;;;23.96;51.94;94463.81;5074401;28;20417;-82
2022/08/23 08:38:28;;;;;;;9.60;6.55;;;;;;;23.92;51.89;94463.47;5091220;28;20024;-83
2022/08/23 08:41:17;;;;;;;8.88;6.95;;;;;;;24.03;52.99;94475.19;5074074;28;20032;-81
2022/08/23 08:44:09;;;;;;;10.27;7.85;;;;;;;24.06;52.49;94466.81;5091040;28;20028;-83
2022/08/23 08:46:40;;;;;;;9.02;7.88;;;;;;;24.06;52.32;94459.66;5090927;28;20048;-83
2022/08/23 08:49:06;;;;;;;14.05;9.27;;;;;;;24.01;52.95;94435.63;5090800;28;20110;-83
2022/08/23 08:51:48;;;;;;;10.57;8.93;;;;;;;24.28;52.60;94465.34;5091731;28;20131;-83
2022/08/23 08:54:16;;;;;;;12.45;8.88;;;;;;;24.35;52.63;94460.00;5091986;28;20032;-81
2022/08/23 08:56:42;;;;;;;10.07;7.95;;;;;;;24.36;53.08;94456.28;5090929;28;20031;-81
2022/08/23 08:59:11;;;;;;;11.85;8.57;;;;;;;24.43;52.99;94462.38;5074054;28;20032;-81
2022/08/23 09:01:37;;;;;;;11.93;9.30;;;;;;;24.44;52.04;94453.38;5091039;28;20052;-81
2022/08/23 09:04:03;;;;;;;12.85;9.73;;;;;;;24.36;52.68;94440.38;5090934;28;20429;-81
2022/08/23 09:06:57;;;;;;;12.57;10.50;;;;;;;24.49;51.89;94442.91;5074187;28;20405;-81
2022/08/23 09:09:56;;;;;;;12.25;10.50;;;;;;;24.41;52.29;94437.88;5074933;28;20391;-81
2022/08/23 09:12:21;;;;;;;13.70;10.18;;;;;;;24.45;51.94;94436.41;5076302;28;20115;-81
2022/08/23 09:14:59;;;;;;;11.18;9.57;;;;;;;24.46;52.65;94443.34;5090399;28;20487;-81
2022/08/23 09:17:53;;;;;;;11.07;9.43;;;;;;;24.47;52.05;94434.34;5090637;28;20028;-81
2022/08/23 09:20:21;;;;;;;11.55;9.52;;;;;;;24.49;50.54;94434.94;5090530;28;20444;-81
2022/08/23 09:22:50;;;;;;;9.23;8.32;;;;;;;24.58;50.87;94437.31;5057253;28;20040;-81
2022/08/23 09:25:16;;;;;;;11.57;9.95;;;;;;;24.57;50.75;94422.38;5073789;28;20119;-81
2022/08/23 09:27:42;;;;;;;11.05;9.32;;;;;;;24.27;51.84;94386.78;5073439;28;20173;-81
2022/08/23 09:30:08;;;;;;;12.50;9.52;;;;;;;24.67;52.33;94436.75;5056816;28;20032;-81
2022/08/23 09:32:36;;;;;;;11.20;9.95;;;;;;;24.80;52.38;94422.53;5090180;28;20052;-81
2022/08/23 09:35:25;;;;;;;12.25;8.88;;;;;;;25.02;51.87;94435.28;5056715;28;20097;-82
2022/08/23 09:38:03;;;;;;;12.05;9.18;;;;;;;25.19;50.65;94423.84;5086131;28;20043;-81
2022/08/23 09:40:33;;;;;;;13.02;9.13;;;;;;;25.36;50.79;94431.97;5090130;28;20068;-81
2022/08/23 09:43:14;;;;;;;12.35;9.35;;;;;;;25.49;49.04;94430.13;5089919;28;20024;-81
2022/08/23 09:45:49;;;;;;;10.43;8.77;;;;;;;25.56;49.64;94425.53;5089933;28;20035;-81
2022/08/23 09:48:32;;;;;;;9.77;8.77;;;;;;;25.69;48.66;94427.19;5091648;28;20024;-81
2022/08/23 09:51:15;;;;;;;11.50;8.63;;;;;;;25.76;48.74;94426.00;5090073;28;20173;-81
2022/08/23 09:53:41;;;;;;;12.27;8.00;;;;;;;25.85;48.78;94427.34;5089768;28;20032;-81
2022/08/23 09:56:21;;;;;;;10.52;8.70;;;;;;;25.93;48.22;94425.34;5073381;28;20494;-81
2022/08/23 09:58:52;;;;;;;9.63;8.63;;;;;;;25.97;47.75;94426.53;5057469;28;20123;-81
2022/08/23 10:01:25;;;;;;;9.35;8.35;;;;;;;25.91;47.94;94427.44;5073815;28;20051;-81
2022/08/23 10:04:07;;;;;;;9.40;8.40;;;;;;;25.91;47.77;94428.25;5073007;28;20077;-81
2022/08/23 10:06:35;;;;;;;9.10;8.10;;;;;;;25.81;48.11;94417.34;5089818;28;20561;-81
2022/08/23 10:09:04;;;;;;;11.13;8.25;;;;;;;25.82;48.55;94416.28;5073335;28;20031;-81
2022/08/23 10:11:33;;;;;;;17.55;8.63;;;;;;;25.88;47.94;94427.88;5089785;28;20078;-81
2022/08/23 10:13:59;;;;;;;11.23;8.23;;;;;;;25.81;46.49;94433.31;5056927;28;20028;-81
2022/08/23 10:16:30;;;;;;;9.43;7.72;;;;;;;25.80;47.48;94435.16;5056093;28;20491;-81
2022/08/23 10:19:08;;;;;;;8.95;8.05;;;;;;;25.82;47.97;94424.28;5090907;28;20039;-81
2022/08/23 10:22:11;;;;;;;10.43;8.18;;;;;;;25.89;48.95;94427.69;5090871;28;20020;-81
2022/08/23 10:24:48;;;;;;;13.10;9.25;;;;;;;25.85;48.18;94408.72;5089532;28;20024;-81
2022/08/23 10:30:20;;;;;;;8.48;7.68;;;;;;;26.11;48.22;94419.91;5091048;28;20105;-81
2022/08/23 10:32:59;;;;;;;9.18;7.97;;;;;;;26.15;47.40;94410.41;5089578;28;20052;-81
2022/08/23 10:35:28;;;;;;;9.18;7.95;;;;;;;26.24;47.29;94406.38;5089743;28;20031;-81
2022/08/23 10:37:53;;;;;;;10.52;8.38;;;;;;;26.32;46.84;94402.50;5089483;28;20044;-81
2022/08/23 10:40:34;;;;;;;10.25;8.00;;;;;;;26.30;45.41;94408.09;5090709;28;20394;-81
2022/08/23 10:43:07;;;;;;;10.63;8.35;;;;;;;26.20;47.29;94399.88;5089345;28;20486;-81
2022/08/23 10:45:36;;;;;;;9.32;7.90;;;;;;;26.22;47.06;94387.16;5089475;28;20086;-81
2022/08/23 10:48:26;;;;;;;9.68;7.82;;;;;;;26.32;46.54;94402.50;5056017;28;20040;-81
2022/08/23 10:50:57;;;;;;;9.83;7.87;;;;;;;26.37;45.84;94393.84;5090498;28;20409;-81
2022/08/23 10:53:48;;;;;;;8.68;7.45;;;;;;;26.47;45.98;94396.72;5073307;28;20119;-81
2022/08/23 10:56:20;;;;;;;10.52;7.57;;;;;;;26.43;44.93;94387.56;5089347;28;20406;-81
2022/08/23 10:58:54;;;;;;;9.65;7.88;;;;;;;26.50;45.83;94401.56;5073358;28;20063;-81
2022/08/23 11:01:22;;;;;;;8.27;7.47;;;;;;;26.57;45.18;94404.13;5072353;28;20048;-81
2022/08/23 11:04:15;;;;;;;9.00;7.40;;;;;;;26.59;45.29;94408.16;5055732;28;20028;-81
2022/08/23 11:06:50;;;;;;;8.95;7.55;;;;;;;26.62;44.81;94405.03;5077681;28;20509;-81
2022/08/23 11:09:21;;;;;;;8.25;7.25;;;;;;;26.65;45.91;94404.53;5075964;28;20499;-81
2022/08/23 11:12:09;;;;;;;8.57;7.30;;;;;;;26.68;43.96;94398.75;5093926;28;20093;-81
2022/08/23 11:14:47;;;;;;;8.10;7.10;;;;;;;26.71;43.66;94405.44;5079414;28;20217;-81
2022/08/23 11:17:24;;;;;;;11.38;7.28;;;;;;;26.78;45.28;94400.00;5060177;28;20035;-81
2022/08/23 11:19:58;;;;;;;8.73;7.03;;;;;;;26.76;43.88;94402.09;5092565;28;20060;-81
2022/08/23 11:22:28;;;;;;;9.05;6.95;;;;;;;26.74;44.09;94402.31;5076073;28;20042;-81
2022/08/23 11:24:57;;;;;;;9.95;7.07;;;;;;;26.79;43.37;94401.63;5075903;28;20024;-81
2022/08/23 11:27:38;;;;;;;9.43;7.43;;;;;;;26.78;42.87;94400.00;5092910;28;20043;-81
2022/08/23 11:30:31;;;;;;;9.32;7.00;;;;;;;26.82;44.04;94398.47;5075793;28;20509;-81
2022/08/23 11:33:15;;;;;;;8.27;6.85;;;;;;;26.86;43.13;94395.09;5092410;28;20544;-81
2022/08/23 11:36:12;;;;;;;10.07;7.28;;;;;;;26.76;42.72;94391.44;5093881;28;20024;-81
2022/08/23 11:38:47;;;;;;;7.68;6.63;;;;;;;26.67;43.67;94389.16;5092780;28;20042;-81
2022/08/23 11:41:18;;;;;;;8.27;6.05;;;;;;;26.74;43.91;94389.00;5093536;28;20115;-81
2022/08/23 11:43:53;;;;;;;8.88;6.00;;;;;;;26.66;42.77;94387.53;5093601;28;20032;-81
2022/08/23 11:46:21;;;;;;;7.80;6.50;;;;;;;26.58;42.77;94374.59;5092214;28;20039;-81
2022/08/23 11:49:10;;;;;;;7.35;6.45;;;;;;;26.59;44.17;94370.06;5093379;28;20135;-81
2022/08/23 11:51:54;;;;;;;7.55;6.50;;;;;;;26.71;43.79;94376.16;5072544;28;20051;-81
2022/08/23 11:54:25;;;;;;;8.48;6.90;;;;;;;26.74;43.44;94368.53;5093189;28;20039;-81